Time;durP1;ratioP1;P1;durP2;ratioP2;P2;SDS_P1;SDS_P2;PMS_P1;PMS_P2;Temp;Humidity;BMP_temperature;BMP_pressure;BME280_temperature;BME280_humidity;BME280_pressure;Samples;Min_cycle;Max_cycle;Signal;HPM_P1;HPM_P2
2024/01/04 00:01:53;;;;;;;0.10;0.10;;;;;;;;;;4908976;28;20052;-88
2024/01/04 00:04:19;;;;;;;0.10;0.10;;;;;;;;;;4909500;28;20051;-89
2024/01/04 00:06:45;;;;;;;0.10;0.10;;;;;;;;;;4908991;28;20040;-89
2024/01/04 00:09:11;;;;;;;0.10;0.10;;;;;;;;;;4909124;28;20132;-89
2024/01/04 00:11:37;;;;;;;0.10;0.10;;;;;;;;;;4908761;28;20565;-89
2024/01/04 00:14:05;;;;;;;0.10;0.10;;;;;;;;;;4908998;29;20131;-88
2024/01/04 00:16:34;;;;;;;0.10;0.10;;;;;;;;;;4877687;29;20551;-89
2024/01/04 00:19:00;;;;;;;0.10;0.10;;;;;;;;;;4877386;29;20047;-90
2024/01/04 00:21:26;;;;;;;0.10;0.10;;;;;;;;;;4877319;29;20053;-89
2024/01/04 00:23:52;;;;;;;0.30;0.30;;;;;;;;;;4877437;29;20408;-88
2024/01/04 00:26:18;;;;;;;0.10;0.10;;;;;;;;;;4907226;29;20051;-89
2024/01/04 00:28:44;;;;;;;0.10;0.10;;;;;;;;;;4974884;28;20107;-88
2024/01/04 00:31:10;;;;;;;0.10;0.10;;;;;;;;;;4877664;29;20052;-88
2024/01/04 00:33:36;;;;;;;0.10;0.10;;;;;;;;;;4974846;28;20048;-89
2024/01/04 00:36:02;;;;;;;0.10;0.10;;;;;;;;;;4877249;29;20049;-88
2024/01/04 00:38:28;;;;;;;0.10;0.10;;;;;;;;;;4975142;28;20056;-89
2024/01/04 00:40:54;;;;;;;0.10;0.10;;;;;;;;;;4974900;28;20207;-88
2024/01/04 00:43:20;;;;;;;0.10;0.10;;;;;;;;;;4974839;28;20079;-88
2024/01/04 00:45:46;;;;;;;0.10;0.10;;;;;;;;;;4975141;28;20059;-89
2024/01/04 00:48:12;;;;;;;0.13;0.13;;;;;;;;;;4877354;29;20472;-89
2024/01/04 00:50:38;;;;;;;0.30;0.30;;;;;;;;;;4977345;28;20543;-89
2024/01/04 00:53:04;;;;;;;0.10;0.10;;;;;;;;;;4880533;29;20156;-89
2024/01/04 00:55:30;;;;;;;0.10;0.10;;;;;;;;;;4977355;28;20041;-89
2024/01/04 00:57:57;;;;;;;0.10;0.10;;;;;;;;;;4880533;29;20040;-88
2024/01/04 01:00:23;;;;;;;0.10;0.10;;;;;;;;;;4880323;29;20041;-88
2024/01/04 01:02:49;;;;;;;0.10;0.10;;;;;;;;;;4896102;29;20484;-89
2024/01/04 01:05:15;;;;;;;4.47;1.13;;;;;;;;;;4895874;29;20048;-88
2024/01/04 01:07:41;;;;;;;0.10;0.10;;;;;;;;;;4880239;29;20044;-88
2024/01/04 01:10:07;;;;;;;0.10;0.10;;;;;;;;;;4880080;29;20091;-88
2024/01/04 01:12:33;;;;;;;0.10;0.10;;;;;;;;;;4895717;29;20450;-88
2024/01/04 01:14:59;;;;;;;0.10;0.10;;;;;;;;;;4895763;29;20124;-88
2024/01/04 01:17:25;;;;;;;0.10;0.10;;;;;;;;;;4879971;29;20047;-89
2024/01/04 01:19:51;;;;;;;0.10;0.10;;;;;;;;;;4880043;29;20459;-88
2024/01/04 01:22:17;;;;;;;0.10;0.10;;;;;;;;;;4880119;29;20056;-88
2024/01/04 01:24:43;;;;;;;0.10;0.10;;;;;;;;;;4894973;29;20036;-88
2024/01/04 01:27:09;;;;;;;0.10;0.10;;;;;;;;;;4977748;28;20043;-89
2024/01/04 01:29:36;;;;;;;0.45;0.30;;;;;;;;;;4977665;28;20083;-88
2024/01/04 01:32:02;;;;;;;0.10;0.10;;;;;;;;;;4879807;29;20041;-88
2024/01/04 01:34:28;;;;;;;0.10;0.10;;;;;;;;;;4977759;28;20044;-89
2024/01/04 01:36:54;;;;;;;0.10;0.10;;;;;;;;;;4977596;28;20052;-88
2024/01/04 01:39:20;;;;;;;0.10;0.10;;;;;;;;;;4977916;28;20044;-88
2024/01/04 01:41:46;;;;;;;0.10;0.10;;;;;;;;;;4879508;29;20047;-88
2024/01/04 01:44:12;;;;;;;0.10;0.10;;;;;;;;;;4977441;28;20040;-88
2024/01/04 01:46:38;;;;;;;0.10;0.10;;;;;;;;;;4978026;28;20461;-88
2024/01/04 01:49:04;;;;;;;0.10;0.10;;;;;;;;;;4977242;28;20080;-88
2024/01/04 01:51:30;;;;;;;0.10;0.10;;;;;;;;;;4879187;29;20131;-88
2024/01/04 01:53:56;;;;;;;0.10;0.10;;;;;;;;;;4977153;28;20503;-88
2024/01/04 01:56:22;;;;;;;0.10;0.10;;;;;;;;;;4879534;29;20040;-88
2024/01/04 01:58:48;;;;;;;0.10;0.10;;;;;;;;;;4977554;28;20045;-88
2024/01/04 02:01:14;;;;;;;0.10;0.10;;;;;;;;;;4878464;29;20127;-88
2024/01/04 02:03:40;;;;;;;0.10;0.10;;;;;;;;;;4976977;28;20515;-87
2024/01/04 02:06:06;;;;;;;0.10;0.10;;;;;;;;;;4976935;28;20040;-87
2024/01/04 02:08:32;;;;;;;0.10;0.10;;;;;;;;;;4879306;29;20445;-87
2024/01/04 02:10:58;;;;;;;0.10;0.10;;;;;;;;;;4976763;28;20052;-87
2024/01/04 02:13:24;;;;;;;0.10;0.10;;;;;;;;;;4977171;28;20045;-87
2024/01/04 02:15:51;;;;;;;0.10;0.10;;;;;;;;;;4976958;28;20051;-88
2024/01/04 02:18:17;;;;;;;0.10;0.10;;;;;;;;;;4977260;28;20198;-88
2024/01/04 02:20:43;;;;;;;0.10;0.10;;;;;;;;;;4976098;28;20428;-89
2024/01/04 02:23:14;;;;;;;0.10;0.10;;;;;;;;;;4878947;29;20049;-88
2024/01/04 02:25:40;;;;;;;0.10;0.10;;;;;;;;;;4879467;29;20052;-89
2024/01/04 02:28:07;;;;;;;0.10;0.10;;;;;;;;;;4976241;28;20082;-88
2024/01/04 02:30:33;;;;;;;0.10;0.10;;;;;;;;;;4879202;29;20459;-89
2024/01/04 02:33:00;;;;;;;0.10;0.10;;;;;;;;;;4894674;29;20187;-88
2024/01/04 02:35:26;;;;;;;0.10;0.10;;;;;;;;;;4894513;29;20049;-89
2024/01/04 02:37:52;;;;;;;1.33;0.43;;;;;;;;;;4879173;28;20040;-89
2024/01/04 02:40:18;;;;;;;0.10;0.10;;;;;;;;;;4878716;29;20131;-86
2024/01/04 02:42:44;;;;;;;0.10;0.10;;;;;;;;;;4894580;29;20062;-88
2024/01/04 02:45:11;;;;;;;0.10;0.10;;;;;;;;;;4879145;29;20156;-88
2024/01/04 02:47:37;;;;;;;0.10;0.10;;;;;;;;;;4894383;29;20076;-88
2024/01/04 02:50:03;;;;;;;0.10;0.10;;;;;;;;;;4893264;29;20048;-88
2024/01/04 02:52:29;;;;;;;0.10;0.10;;;;;;;;;;4940717;29;20140;-87
2024/01/04 02:54:55;;;;;;;0.10;0.10;;;;;;;;;;4875622;29;20049;-88
2024/01/04 02:57:21;;;;;;;0.10;0.10;;;;;;;;;;4875752;28;20132;-88
2024/01/04 02:59:47;;;;;;;0.10;0.10;;;;;;;;;;4875357;28;20053;-87
2024/01/04 03:02:15;;;;;;;0.10;0.10;;;;;;;;;;4860106;29;20060;-87
2024/01/04 03:04:42;;;;;;;0.10;0.10;;;;;;;;;;4875257;29;20550;-88
2024/01/04 03:07:08;;;;;;;0.10;0.10;;;;;;;;;;4875196;28;20065;-88
2024/01/04 03:09:34;;;;;;;0.10;0.10;;;;;;;;;;4875352;28;20052;-89
2024/01/04 03:12:00;;;;;;;0.10;0.10;;;;;;;;;;4875325;28;20045;-89
2024/01/04 03:14:26;;;;;;;0.10;0.10;;;;;;;;;;4875668;29;20131;-89
2024/01/04 03:16:52;;;;;;;0.10;0.10;;;;;;;;;;4890525;29;20063;-88
2024/01/04 03:19:18;;;;;;;0.28;0.28;;;;;;;;;;4875002;29;20045;-88
2024/01/04 03:21:45;;;;;;;0.10;0.10;;;;;;;;;;4886557;28;20067;-88
2024/01/04 03:24:11;;;;;;;0.10;0.10;;;;;;;;;;4909399;28;20510;-89
2024/01/04 03:26:37;;;;;;;0.10;0.10;;;;;;;;;;4878118;29;20127;-88
2024/01/04 03:29:03;;;;;;;0.10;0.10;;;;;;;;;;4909445;28;20045;-89
2024/01/04 03:31:29;;;;;;;0.10;0.10;;;;;;;;;;4909586;29;20131;-88
2024/01/04 03:33:55;;;;;;;0.10;0.10;;;;;;;;;;4878086;29;20045;-88
2024/01/04 03:36:21;;;;;;;0.10;0.10;;;;;;;;;;4909128;28;20040;-87
2024/01/04 03:38:48;;;;;;;0.15;0.15;;;;;;;;;;4893739;28;20060;-87
2024/01/04 03:41:14;;;;;;;0.10;0.10;;;;;;;;;;4909109;29;20078;-87
2024/01/04 03:43:40;;;;;;;0.10;0.10;;;;;;;;;;4878130;29;20056;-88
2024/01/04 03:46:06;;;;;;;0.10;0.10;;;;;;;;;;4877837;29;20481;-87
2024/01/04 03:48:32;;;;;;;0.10;0.10;;;;;;;;;;4909057;28;20075;-88
2024/01/04 03:50:58;;;;;;;0.10;0.10;;;;;;;;;;4908216;29;20041;-88
2024/01/04 03:53:25;;;;;;;0.20;0.20;;;;;;;;;;4909365;28;20110;-89
2024/01/04 03:55:51;;;;;;;0.10;0.10;;;;;;;;;;4909366;28;20056;-88
2024/01/04 03:58:17;;;;;;;0.10;0.10;;;;;;;;;;4877995;29;20075;-88
2024/01/04 04:00:43;;;;;;;0.10;0.10;;;;;;;;;;4908997;28;20075;-88
2024/01/04 04:03:09;;;;;;;0.10;0.10;;;;;;;;;;4908889;28;20040;-88
2024/01/04 04:05:35;;;;;;;0.30;0.30;;;;;;;;;;4877827;29;20488;-88
2024/01/04 04:08:01;;;;;;;0.10;0.10;;;;;;;;;;4908994;28;20059;-88
2024/01/04 04:10:27;;;;;;;0.10;0.10;;;;;;;;;;4908936;28;20111;-88
2024/01/04 04:12:53;;;;;;;0.10;0.10;;;;;;;;;;4877885;29;20392;-88
2024/01/04 04:15:19;;;;;;;0.10;0.10;;;;;;;;;;4877498;29;20115;-88
2024/01/04 04:17:45;;;;;;;0.10;0.10;;;;;;;;;;4877612;29;20067;-88
2024/01/04 04:20:11;;;;;;;0.10;0.10;;;;;;;;;;4877337;29;20053;-87
2024/01/04 04:22:37;;;;;;;0.10;0.10;;;;;;;;;;4892393;29;20053;-88
2024/01/04 04:25:03;;;;;;;0.20;0.20;;;;;;;;;;4879113;29;20055;-87
2024/01/04 04:27:29;;;;;;;0.10;0.10;;;;;;;;;;4881265;29;20436;-89
2024/01/04 04:29:55;;;;;;;0.10;0.10;;;;;;;;;;4880799;29;20469;-88
2024/01/04 04:32:21;;;;;;;0.10;0.10;;;;;;;;;;4880871;29;20121;-89
2024/01/04 04:34:47;;;;;;;0.10;0.10;;;;;;;;;;4880793;29;20147;-88
2024/01/04 04:37:14;;;;;;;0.10;0.10;;;;;;;;;;4880864;29;20131;-88
2024/01/04 04:39:40;;;;;;;0.17;0.17;;;;;;;;;;4880443;29;20037;-87
2024/01/04 04:42:06;;;;;;;0.10;0.10;;;;;;;;;;4880493;29;20131;-87
2024/01/04 04:44:32;;;;;;;0.10;0.10;;;;;;;;;;4911979;28;20040;-87
2024/01/04 04:46:58;;;;;;;0.10;0.10;;;;;;;;;;4880362;29;20440;-89
2024/01/04 04:49:25;;;;;;;0.10;0.10;;;;;;;;;;4911841;29;20048;-87
2024/01/04 04:51:52;;;;;;;0.10;0.10;;;;;;;;;;4910795;28;20051;-90
2024/01/04 04:54:18;;;;;;;0.10;0.10;;;;;;;;;;4880825;29;20106;-89
2024/01/04 04:56:44;;;;;;;0.10;0.10;;;;;;;;;;4978674;28;20044;-88
2024/01/04 04:59:10;;;;;;;0.10;0.10;;;;;;;;;;4880433;29;20051;-89
2024/01/04 05:01:36;;;;;;;0.10;0.10;;;;;;;;;;4978669;28;20049;-89
2024/01/04 05:04:02;;;;;;;0.10;0.10;;;;;;;;;;4978772;28;20040;-89
2024/01/04 05:06:28;;;;;;;0.10;0.10;;;;;;;;;;4880262;29;20048;-89
2024/01/04 05:08:54;;;;;;;0.10;0.10;;;;;;;;;;4880219;29;20463;-89
2024/01/04 05:11:20;;;;;;;0.10;0.10;;;;;;;;;;4880151;29;20135;-88
2024/01/04 05:13:46;;;;;;;0.10;0.10;;;;;;;;;;4978009;28;20070;-88
2024/01/04 05:16:12;;;;;;;0.10;0.10;;;;;;;;;;4879919;29;20048;-89
2024/01/04 05:18:38;;;;;;;0.35;0.15;;;;;;;;;;4978159;28;20055;-89
2024/01/04 05:21:05;;;;;;;0.10;0.10;;;;;;;;;;4977275;28;20496;-88
2024/01/04 05:23:31;;;;;;;0.10;0.10;;;;;;;;;;4879117;29;20526;-89
2024/01/04 05:25:57;;;;;;;0.10;0.10;;;;;;;;;;4880208;29;20048;-90
2024/01/04 05:28:23;;;;;;;0.10;0.10;;;;;;;;;;4879856;29;20049;-89
2024/01/04 05:30:49;;;;;;;0.13;0.13;;;;;;;;;;4879777;29;20048;-88
2024/01/04 05:33:15;;;;;;;0.10;0.10;;;;;;;;;;4879918;29;20541;-89
2024/01/04 05:35:41;;;;;;;0.10;0.10;;;;;;;;;;4976672;28;20041;-88
2024/01/04 05:38:07;;;;;;;0.10;0.10;;;;;;;;;;4977281;28;20483;-87
2024/01/04 05:40:33;;;;;;;0.10;0.10;;;;;;;;;;4879998;29;20044;-88
2024/01/04 05:42:59;;;;;;;0.10;0.10;;;;;;;;;;4977727;28;20064;-88
2024/01/04 05:45:25;;;;;;;0.10;0.10;;;;;;;;;;4879627;29;20484;-88
2024/01/04 05:47:51;;;;;;;0.10;0.10;;;;;;;;;;4977658;28;20041;-88
2024/01/04 05:50:17;;;;;;;0.10;0.10;;;;;;;;;;4879620;29;20135;-89
2024/01/04 05:52:43;;;;;;;0.10;0.10;;;;;;;;;;4977669;28;20135;-89
2024/01/04 05:55:09;;;;;;;0.10;0.10;;;;;;;;;;4976627;28;20047;-88
2024/01/04 05:57:35;;;;;;;0.10;0.10;;;;;;;;;;4977602;28;20037;-88
2024/01/04 06:00:01;;;;;;;0.10;0.10;;;;;;;;;;4879469;29;20045;-88
2024/01/04 06:02:27;;;;;;;0.10;0.10;;;;;;;;;;4879489;29;20037;-88
2024/01/04 06:04:54;;;;;;;0.10;0.10;;;;;;;;;;4977245;28;20083;-88
2024/01/04 06:07:21;;;;;;;0.10;0.10;;;;;;;;;;4879532;29;20398;-88
2024/01/04 06:09:47;;;;;;;0.10;0.10;;;;;;;;;;4879233;29;20048;-87
2024/01/04 06:12:13;;;;;;;0.20;0.20;;;;;;;;;;4977189;28;20052;-88
2024/01/04 06:14:39;;;;;;;0.10;0.10;;;;;;;;;;4977017;28;20044;-87
2024/01/04 06:17:07;;;;;;;0.10;0.10;;;;;;;;;;4879322;29;20484;-88
2024/01/04 06:19:34;;;;;;;0.10;0.10;;;;;;;;;;4879071;29;20041;-88
2024/01/04 06:22:00;;;;;;;0.10;0.10;;;;;;;;;;4976812;28;20493;-89
2024/01/04 06:24:26;;;;;;;0.10;0.10;;;;;;;;;;4975546;28;20048;-89
2024/01/04 06:26:52;;;;;;;0.10;0.10;;;;;;;;;;4879073;29;20045;-90
2024/01/04 06:29:19;;;;;;;0.10;0.10;;;;;;;;;;4977630;28;20052;-89
2024/01/04 06:31:45;;;;;;;0.10;0.10;;;;;;;;;;4879003;29;20045;-89
2024/01/04 06:34:11;;;;;;;0.10;0.10;;;;;;;;;;4879267;29;20165;-89
2024/01/04 06:36:37;;;;;;;0.10;0.10;;;;;;;;;;4977253;28;20041;-89
2024/01/04 06:39:03;;;;;;;0.10;0.10;;;;;;;;;;4879444;29;20095;-89
2024/01/04 06:41:30;;;;;;;0.10;0.10;;;;;;;;;;4878901;29;20076;-88
2024/01/04 06:44:00;;;;;;;0.10;0.10;;;;;;;;;;4976590;28;20124;-88
2024/01/04 06:46:26;;;;;;;0.10;0.10;;;;;;;;;;4976864;28;20044;-88
2024/01/04 06:48:52;;;;;;;0.20;0.20;;;;;;;;;;4976158;28;20115;-88
2024/01/04 06:51:18;;;;;;;0.10;0.10;;;;;;;;;;4976165;28;20079;-87
2024/01/04 06:53:44;;;;;;;2.65;0.43;;;;;;;;;;4975204;28;20201;-88
2024/01/04 06:56:12;;;;;;;0.10;0.10;;;;;;;;;;4884702;29;20117;-89
2024/01/04 06:58:38;;;;;;;0.10;0.10;;;;;;;;;;4940325;28;20092;-89
2024/01/04 07:01:04;;;;;;;0.10;0.10;;;;;;;;;;4924739;29;20053;-89
2024/01/04 07:03:30;;;;;;;0.10;0.10;;;;;;;;;;4940558;29;20492;-89
2024/01/04 07:05:56;;;;;;;0.10;0.10;;;;;;;;;;4940460;29;20064;-90
2024/01/04 07:08:23;;;;;;;0.10;0.10;;;;;;;;;;4924356;29;20076;-90
2024/01/04 07:10:49;;;;;;;0.10;0.10;;;;;;;;;;4940185;29;20063;-88
2024/01/04 07:13:15;;;;;;;0.10;0.10;;;;;;;;;;4940462;28;20045;-90
2024/01/04 07:15:41;;;;;;;0.10;0.10;;;;;;;;;;4940324;29;20136;-88
2024/01/04 07:18:07;;;;;;;0.10;0.10;;;;;;;;;;4940113;28;20049;-88
2024/01/04 07:20:33;;;;;;;0.10;0.10;;;;;;;;;;4874945;29;20175;-88
2024/01/04 07:22:59;;;;;;;0.10;0.10;;;;;;;;;;4875192;29;20037;-90
2024/01/04 07:25:25;;;;;;;0.10;0.10;;;;;;;;;;4942867;28;20377;-91
2024/01/04 07:27:52;;;;;;;0.10;0.10;;;;;;;;;;4879049;29;20051;-92
2024/01/04 07:30:18;;;;;;;0.10;0.10;;;;;;;;;;4879127;29;20479;-90
2024/01/04 07:32:44;;;;;;;0.10;0.10;;;;;;;;;;4878390;29;20052;-89
2024/01/04 07:35:12;;;;;;;0.10;0.10;;;;;;;;;;4878556;29;20040;-92
2024/01/04 07:37:39;;;;;;;0.30;0.30;;;;;;;;;;4878540;29;20052;-90
2024/01/04 07:40:05;;;;;;;0.10;0.10;;;;;;;;;;4878433;29;20087;-89
2024/01/04 07:42:31;;;;;;;0.10;0.10;;;;;;;;;;4975876;28;20075;-90
2024/01/04 07:44:57;;;;;;;0.10;0.10;;;;;;;;;;4878500;29;20091;-89
2024/01/04 07:47:23;;;;;;;0.10;0.10;;;;;;;;;;4878285;29;20123;-88
2024/01/04 07:49:49;;;;;;;0.10;0.10;;;;;;;;;;4877990;29;20239;-89
2024/01/04 07:52:15;;;;;;;0.10;0.10;;;;;;;;;;4975783;28;20194;-88
2024/01/04 07:54:41;;;;;;;0.10;0.10;;;;;;;;;;4974538;28;20049;-90
2024/01/04 07:57:07;;;;;;;0.10;0.10;;;;;;;;;;4879075;29;20064;-90
2024/01/04 07:59:33;;;;;;;0.10;0.10;;;;;;;;;;4892825;29;20127;-90
2024/01/04 08:01:59;;;;;;;0.10;0.10;;;;;;;;;;4878341;29;20154;-90
2024/01/04 08:04:26;;;;;;;0.10;0.10;;;;;;;;;;4877043;29;20448;-91
2024/01/04 08:06:52;;;;;;;0.10;0.10;;;;;;;;;;4893662;29;20044;-91
2024/01/04 08:09:18;;;;;;;0.10;0.10;;;;;;;;;;4943350;28;20041;-91
2024/01/04 08:11:45;;;;;;;0.10;0.10;;;;;;;;;;4958858;28;20045;-90
2024/01/04 08:14:12;;;;;;;0.10;0.10;;;;;;;;;;4942359;29;20049;-90
2024/01/04 08:16:38;;;;;;;0.10;0.10;;;;;;;;;;4942231;28;20091;-89
2024/01/04 08:19:04;;;;;;;0.10;0.10;;;;;;;;;;4941689;28;20049;-88
2024/01/04 08:21:30;;;;;;;0.10;0.10;;;;;;;;;;4866155;29;20111;-91
2024/01/04 08:23:56;;;;;;;0.10;0.10;;;;;;;;;;4943098;29;20051;-90
2024/01/04 08:26:22;;;;;;;0.10;0.10;;;;;;;;;;4942757;28;20056;-89
2024/01/04 08:28:49;;;;;;;0.10;0.10;;;;;;;;;;4956928;28;20520;-87
2024/01/04 08:31:15;;;;;;;0.10;0.10;;;;;;;;;;4923410;29;20049;-88
2024/01/04 08:33:41;;;;;;;0.10;0.10;;;;;;;;;;4858911;29;20056;-89
2024/01/04 08:36:08;;;;;;;0.10;0.10;;;;;;;;;;4923650;29;20440;-90
2024/01/04 08:38:34;;;;;;;0.10;0.10;;;;;;;;;;4932257;28;20127;-92
2024/01/04 08:41:01;;;;;;;0.10;0.10;;;;;;;;;;4893269;29;20452;-89
2024/01/04 08:43:28;;;;;;;0.10;0.10;;;;;;;;;;4893530;29;20420;-91
2024/01/04 08:45:54;;;;;;;0.10;0.10;;;;;;;;;;4892912;28;20045;-89
2024/01/04 08:48:20;;;;;;;0.10;0.10;;;;;;;;;;4893093;29;20051;-89
2024/01/04 08:50:46;;;;;;;0.10;0.10;;;;;;;;;;4908743;29;20131;-89
2024/01/04 08:53:20;;;;;;;0.10;0.10;;;;;;;;;;4892916;28;20491;-88
2024/01/04 08:55:46;;;;;;;0.10;0.10;;;;;;;;;;4892317;29;20041;-89
2024/01/04 08:58:12;;;;;;;0.10;0.10;;;;;;;;;;4908319;29;20041;-89
2024/01/04 09:00:39;;;;;;;0.10;0.10;;;;;;;;;;4908075;29;20411;-90
2024/01/04 09:03:05;;;;;;;0.10;0.10;;;;;;;;;;4877214;29;20041;-87
2024/01/04 09:05:31;;;;;;;0.10;0.10;;;;;;;;;;4892372;29;20510;-88
2024/01/04 09:07:57;;;;;;;0.10;0.10;;;;;;;;;;4892397;29;20045;-91
2024/01/04 09:10:24;;;;;;;0.10;0.10;;;;;;;;;;4877553;29;20048;-89
2024/01/04 09:12:51;;;;;;;0.10;0.10;;;;;;;;;;4895126;29;20507;-89
2024/01/04 09:15:17;;;;;;;0.10;0.10;;;;;;;;;;4895674;28;20133;-87
2024/01/04 09:17:43;;;;;;;0.10;0.10;;;;;;;;;;4896055;28;20404;-90
2024/01/04 09:20:10;;;;;;;0.10;0.10;;;;;;;;;;4895214;29;20040;-90
2024/01/04 09:22:36;;;;;;;0.10;0.10;;;;;;;;;;4895805;29;20543;-90
2024/01/04 09:25:03;;;;;;;0.10;0.10;;;;;;;;;;4895759;29;20040;-90
2024/01/04 09:27:29;;;;;;;0.10;0.10;;;;;;;;;;4895701;29;20439;-90
2024/01/04 09:29:55;;;;;;;0.10;0.10;;;;;;;;;;4894456;28;20103;-89
2024/01/04 09:32:21;;;;;;;0.10;0.10;;;;;;;;;;4895492;29;20048;-89
2024/01/04 09:34:47;;;;;;;0.10;0.10;;;;;;;;;;4894910;29;20119;-90
2024/01/04 09:37:13;;;;;;;0.10;0.10;;;;;;;;;;4959443;28;20507;-92
2024/01/04 09:39:40;;;;;;;0.10;0.10;;;;;;;;;;4944968;28;20045;-90
2024/01/04 09:42:06;;;;;;;0.10;0.10;;;;;;;;;;4946643;28;20051;-89
2024/01/04 09:44:33;;;;;;;0.10;0.10;;;;;;;;;;4944626;28;20050;-89
2024/01/04 09:46:59;;;;;;;0.10;0.10;;;;;;;;;;4949623;28;20049;-89
2024/01/04 09:49:25;;;;;;;0.10;0.10;;;;;;;;;;4876440;28;20045;-90
2024/01/04 09:51:52;;;;;;;0.10;0.10;;;;;;;;;;4892728;28;20056;-89
2024/01/04 09:54:18;;;;;;;0.10;0.10;;;;;;;;;;4879436;29;20131;-91
2024/01/04 09:56:50;;;;;;;0.10;0.10;;;;;;;;;;4941890;28;20040;-89
2024/01/04 09:59:16;;;;;;;0.10;0.10;;;;;;;;;;4878842;28;20040;-90
2024/01/04 10:01:43;;;;;;;0.10;0.10;;;;;;;;;;4944574;28;20063;-91
2024/01/04 10:04:12;;;;;;;0.10;0.10;;;;;;;;;;4893374;28;20052;-89
2024/01/04 10:06:39;;;;;;;0.10;0.10;;;;;;;;;;4891348;29;20044;-89
2024/01/04 10:09:23;;;;;;;0.10;0.10;;;;;;;;;;4935350;28;20053;-91
2024/01/04 10:11:53;;;;;;;0.10;0.10;;;;;;;;;;4938400;28;20212;-91
2024/01/04 10:14:19;;;;;;;0.10;0.10;;;;;;;;;;4960654;28;20045;-90
2024/01/04 10:16:45;;;;;;;0.10;0.10;;;;;;;;;;4960471;28;20080;-89
2024/01/04 10:19:11;;;;;;;0.10;0.10;;;;;;;;;;4881322;29;20044;-89
2024/01/04 10:21:38;;;;;;;0.10;0.10;;;;;;;;;;4975392;28;20060;-89
2024/01/04 10:24:04;;;;;;;0.10;0.10;;;;;;;;;;4894728;28;20044;-90
2024/01/04 10:26:30;;;;;;;0.10;0.10;;;;;;;;;;4960751;28;20048;-89
2024/01/04 10:28:59;;;;;;;0.10;0.10;;;;;;;;;;4944078;28;20064;-89
2024/01/04 10:31:28;;;;;;;0.10;0.10;;;;;;;;;;4944986;28;20055;-90
2024/01/04 10:33:58;;;;;;;0.10;0.10;;;;;;;;;;4943990;28;20045;-87
2024/01/04 10:36:28;;;;;;;0.10;0.10;;;;;;;;;;4959628;28;20047;-92
2024/01/04 10:38:54;;;;;;;0.10;0.10;;;;;;;;;;4942133;28;20036;-90
2024/01/04 10:41:20;;;;;;;0.10;0.10;;;;;;;;;;4975856;28;20073;-90
2024/01/04 10:43:46;;;;;;;0.10;0.10;;;;;;;;;;4882037;29;20089;-90
2024/01/04 10:46:13;;;;;;;0.10;0.10;;;;;;;;;;4924725;29;20492;-90
2024/01/04 10:48:39;;;;;;;0.10;0.10;;;;;;;;;;4940457;29;20049;-89
2024/01/04 10:51:05;;;;;;;0.10;0.10;;;;;;;;;;4875351;29;20516;-90
2024/01/04 10:53:32;;;;;;;0.10;0.10;;;;;;;;;;4924688;29;20136;-90
2024/01/04 10:55:58;;;;;;;0.10;0.10;;;;;;;;;;4891773;28;20064;-92
2024/01/04 10:58:24;;;;;;;0.10;0.10;;;;;;;;;;4945486;28;20040;-91
2024/01/04 11:00:51;;;;;;;0.10;0.10;;;;;;;;;;4959678;28;20499;-90
2024/01/04 11:03:17;;;;;;;0.10;0.10;;;;;;;;;;4943890;28;20123;-90
2024/01/04 11:05:43;;;;;;;0.10;0.10;;;;;;;;;;4943373;28;20413;-91
2024/01/04 11:08:09;;;;;;;0.10;0.10;;;;;;;;;;4875698;28;20049;-89
2024/01/04 11:10:35;;;;;;;0.10;0.10;;;;;;;;;;4875538;28;20091;-90
2024/01/04 11:13:01;;;;;;;0.10;0.10;;;;;;;;;;4875690;29;20080;-90
2024/01/04 11:15:27;;;;;;;0.10;0.10;;;;;;;;;;4873457;29;20045;-90
2024/01/04 11:17:56;;;;;;;0.10;0.10;;;;;;;;;;4906171;28;20404;-89
2024/01/04 11:20:22;;;;;;;0.10;0.10;;;;;;;;;;4877304;29;20057;-91
2024/01/04 11:23:01;;;;;;;0.10;0.10;;;;;;;;;;4894263;29;20041;-91
2024/01/04 11:25:46;;;;;;;0.10;0.10;;;;;;;;;;4878341;29;20048;-92
2024/01/04 11:28:12;;;;;;;0.10;0.10;;;;;;;;;;4894168;28;20516;-90
2024/01/04 11:30:38;;;;;;;0.10;0.10;;;;;;;;;;4893670;29;20128;-90
2024/01/04 11:33:04;;;;;;;0.10;0.10;;;;;;;;;;4960845;28;20072;-91
2024/01/04 11:35:36;;;;;;;0.10;0.10;;;;;;;;;;4943570;29;20045;-93
2024/01/04 11:38:08;;;;;;;0.10;0.10;;;;;;;;;;4960178;28;20076;-89
2024/01/04 11:40:37;;;;;;;0.10;0.10;;;;;;;;;;4877868;28;20498;-90
2024/01/04 11:43:24;;;;;;;0.10;0.10;;;;;;;;;;4940086;28;20423;-91
2024/01/04 11:45:50;;;;;;;0.10;0.10;;;;;;;;;;4892964;29;20048;-89
2024/01/04 11:48:20;;;;;;;0.10;0.10;;;;;;;;;;4978010;28;20191;-91
2024/01/04 11:50:51;;;;;;;0.10;0.10;;;;;;;;;;4927285;28;20128;-90
2024/01/04 11:53:18;;;;;;;0.10;0.10;;;;;;;;;;4975387;28;20431;-90
2024/01/04 11:55:45;;;;;;;0.10;0.10;;;;;;;;;;4877613;29;20076;-89
2024/01/04 11:58:13;;;;;;;0.10;0.10;;;;;;;;;;4974701;28;20040;-92
2024/01/04 12:00:42;;;;;;;0.10;0.10;;;;;;;;;;4904421;28;20067;-90
2024/01/04 12:03:14;;;;;;;0.10;0.10;;;;;;;;;;4941075;28;20052;-91
2024/01/04 12:05:40;;;;;;;;;;;;;;;;;;4958887;28;20559;-92
2024/01/04 12:08:07;;;;;;;0.10;0.10;;;;;;;;;;4911473;28;19918;-92
2024/01/04 12:10:33;;;;;;;0.10;0.10;;;;;;;;;;4935954;28;20049;-91
2024/01/04 12:12:59;;;;;;;0.10;0.10;;;;;;;;;;4894231;28;20048;-91
2024/01/04 12:15:25;;;;;;;0.10;0.10;;;;;;;;;;4893889;28;20107;-91
2024/01/04 12:17:51;;;;;;;0.10;0.10;;;;;;;;;;4878216;29;20384;-90
2024/01/04 12:20:18;;;;;;;0.10;0.10;;;;;;;;;;4957899;28;20040;-91
2024/01/04 12:22:44;;;;;;;0.10;0.10;;;;;;;;;;4893783;29;20084;-93
2024/01/04 12:25:10;;;;;;;0.10;0.10;;;;;;;;;;4893655;29;20080;-93
2024/01/04 12:27:36;;;;;;;0.10;0.10;;;;;;;;;;4894294;29;20135;-89
2024/01/04 12:30:05;;;;;;;0.10;0.10;;;;;;;;;;4893337;29;20111;-91
2024/01/04 12:32:31;;;;;;;0.10;0.10;;;;;;;;;;4893505;29;20492;-91
2024/01/04 12:34:57;;;;;;;0.10;0.10;;;;;;;;;;4893660;29;20056;-91
2024/01/04 12:37:23;;;;;;;0.10;0.10;;;;;;;;;;4892650;28;20045;-91
2024/01/04 12:39:49;;;;;;;0.10;0.10;;;;;;;;;;4893011;29;20045;-91
2024/01/04 12:42:16;;;;;;;0.10;0.10;;;;;;;;;;4893260;29;20040;-90
2024/01/04 12:44:43;;;;;;;0.10;0.10;;;;;;;;;;4892819;29;20040;-90
2024/01/04 12:47:11;;;;;;;0.10;0.10;;;;;;;;;;4895697;29;20501;-91
2024/01/04 12:49:37;;;;;;;0.10;0.10;;;;;;;;;;4911769;29;20076;-90
2024/01/04 12:52:12;;;;;;;0.10;0.10;;;;;;;;;;4896113;29;20044;-90
2024/01/04 12:54:40;;;;;;;0.10;0.10;;;;;;;;;;4895757;29;20044;-93
2024/01/04 12:57:06;;;;;;;0.10;0.10;;;;;;;;;;4953401;28;20080;-92
2024/01/04 12:59:33;;;;;;;0.10;0.10;;;;;;;;;;4927605;29;20048;-93
2024/01/04 13:01:59;;;;;;;0.10;0.10;;;;;;;;;;4926496;29;20072;-93
2024/01/04 13:04:25;;;;;;;0.10;0.10;;;;;;;;;;4927210;29;20037;-92
2024/01/04 13:06:53;;;;;;;0.10;0.10;;;;;;;;;;4927679;29;20105;-92
2024/01/04 13:09:19;;;;;;;0.10;0.10;;;;;;;;;;4926705;29;20131;-93
2024/01/04 13:11:45;;;;;;;0.10;0.10;;;;;;;;;;4927588;29;20069;-92
2024/01/04 13:14:11;;;;;;;0.10;0.10;;;;;;;;;;4943599;29;20049;-93
2024/01/04 13:16:37;;;;;;;0.10;0.10;;;;;;;;;;4943443;29;20049;-93
2024/01/04 13:19:03;;;;;;;0.10;0.10;;;;;;;;;;4951936;28;20456;-92
2024/01/04 13:21:29;;;;;;;0.10;0.10;;;;;;;;;;4980993;28;20135;-92
2024/01/04 13:23:55;;;;;;;0.10;0.10;;;;;;;;;;4965763;28;20051;-92
2024/01/04 13:26:21;;;;;;;0.13;0.13;;;;;;;;;;4945970;28;20044;-91
2024/01/04 13:28:47;;;;;;;0.10;0.10;;;;;;;;;;4881408;29;20045;-93
2024/01/04 13:31:13;;;;;;;0.10;0.10;;;;;;;;;;4881072;29;20041;-93
2024/01/04 13:33:39;;;;;;;0.10;0.10;;;;;;;;;;4947270;28;20040;-93
2024/01/04 13:36:06;;;;;;;0.10;0.10;;;;;;;;;;4946107;29;20108;-93
2024/01/04 13:38:32;;;;;;;0.10;0.10;;;;;;;;;;4947510;29;20117;-91
2024/01/04 13:40:58;;;;;;;0.10;0.10;;;;;;;;;;4881472;29;20045;-91
2024/01/04 13:43:24;;;;;;;0.10;0.10;;;;;;;;;;4912797;28;20061;-90
2024/01/04 13:45:53;;;;;;;0.10;0.10;;;;;;;;;;4879969;29;20049;-90
2024/01/04 13:48:20;;;;;;;0.10;0.10;;;;;;;;;;4943478;28;20484;-93
2024/01/04 13:50:49;;;;;;;0.10;0.10;;;;;;;;;;4961089;28;20074;-93
2024/01/04 13:53:15;;;;;;;0.10;0.10;;;;;;;;;;4880847;28;20052;-93
2024/01/04 13:55:41;;;;;;;0.10;0.10;;;;;;;;;;4863872;28;20464;-93
2024/01/04 13:58:11;;;;;;;0.10;0.10;;;;;;;;;;4863164;29;20052;-95
2024/01/04 14:00:38;;;;;;;0.10;0.10;;;;;;;;;;4864083;29;20045;-93
2024/01/04 14:03:20;;;;;;;0.10;0.10;;;;;;;;;;4945521;28;20043;-92
2024/01/04 14:05:47;;;;;;;0.20;0.20;;;;;;;;;;4897722;29;20052;-94
2024/01/04 14:08:14;;;;;;;0.10;0.10;;;;;;;;;;4881525;28;20048;-95
2024/01/04 14:10:53;;;;;;;;;;;;;;;;;;;;;
2024/01/04 14:13:27;;;;;;;0.10;0.10;;;;;;;;;;4896799;29;20048;-96
2024/01/04 14:15:53;;;;;;;0.10;0.10;;;;;;;;;;4881672;28;20099;-96
2024/01/04 14:18:20;;;;;;;0.10;0.10;;;;;;;;;;4883172;28;20604;-96
2024/01/04 14:20:46;;;;;;;0.10;0.10;;;;;;;;;;4964947;28;20136;-92
2024/01/04 14:23:12;;;;;;;0.10;0.10;;;;;;;;;;4898989;29;20044;-94
2024/01/04 14:25:39;;;;;;;0.10;0.10;;;;;;;;;;4964528;28;20052;-90
2024/01/04 14:28:05;;;;;;;0.10;0.10;;;;;;;;;;4963766;28;20096;-90
2024/01/04 14:30:31;;;;;;;0.10;0.10;;;;;;;;;;4963835;28;20040;-89
2024/01/04 14:32:57;;;;;;;0.10;0.10;;;;;;;;;;4891751;28;20127;-91
2024/01/04 14:35:24;;;;;;;0.10;0.10;;;;;;;;;;4932967;29;20041;-91
2024/01/04 14:37:50;;;;;;;0.10;0.10;;;;;;;;;;4944100;28;20041;-91
2024/01/04 14:40:16;;;;;;;0.10;0.10;;;;;;;;;;4944808;28;20080;-91